sensor_id;sensor_type;location;lat;lon;timestamp;P1;durP1;ratioP1;P2;durP2;ratioP2
62724;SDS011;49026;52.600;4.694;2023-04-24T00:01:37;4.60;;;2.13;;
62724;SDS011;49026;52.600;4.694;2023-04-24T00:04:06;4.97;;;1.90;;
62724;SDS011;49026;52.600;4.694;2023-04-24T00:06:38;5.95;;;2.15;;
62724;SDS011;49026;52.600;4.694;2023-04-24T00:11:30;5.80;;;2.23;;
62724;SDS011;49026;52.600;4.694;2023-04-24T00:13:56;3.25;;;2.00;;
62724;SDS011;49026;52.600;4.694;2023-04-24T00:16:22;5.63;;;2.28;;
62724;SDS011;49026;52.600;4.694;2023-04-24T00:18:48;4.45;;;2.25;;
62724;SDS011;49026;52.600;4.694;2023-04-24T00:21:13;5.25;;;2.30;;
62724;SDS011;49026;52.600;4.694;2023-04-24T00:23:41;5.95;;;2.47;;
62724;SDS011;49026;52.600;4.694;2023-04-24T00:26:09;6.30;;;2.03;;
62724;SDS011;49026;52.600;4.694;2023-04-24T00:28:35;5.65;;;2.25;;
62724;SDS011;49026;52.600;4.694;2023-04-24T00:31:00;6.65;;;2.30;;
62724;SDS011;49026;52.600;4.694;2023-04-24T00:33:28;10.38;;;3.10;;
62724;SDS011;49026;52.600;4.694;2023-04-24T00:35:53;4.50;;;2.00;;
62724;SDS011;49026;52.600;4.694;2023-04-24T00:38:18;6.22;;;2.40;;
62724;SDS011;49026;52.600;4.694;2023-04-24T00:40:44;7.18;;;2.30;;
62724;SDS011;49026;52.600;4.694;2023-04-24T00:43:09;6.47;;;2.42;;
62724;SDS011;49026;52.600;4.694;2023-04-24T00:45:35;9.30;;;2.25;;
62724;SDS011;49026;52.600;4.694;2023-04-24T00:48:01;5.40;;;2.45;;
62724;SDS011;49026;52.600;4.694;2023-04-24T00:50:26;7.53;;;2.60;;
62724;SDS011;49026;52.600;4.694;2023-04-24T00:52:53;8.32;;;2.42;;
62724;SDS011;49026;52.600;4.694;2023-04-24T00:55:19;11.68;;;2.88;;
62724;SDS011;49026;52.600;4.694;2023-04-24T00:57:44;7.28;;;2.60;;
62724;SDS011;49026;52.600;4.694;2023-04-24T01:00:12;8.70;;;2.42;;
62724;SDS011;49026;52.600;4.694;2023-04-24T01:02:39;7.32;;;2.90;;
62724;SDS011;49026;52.600;4.694;2023-04-24T01:05:08;19.90;;;3.25;;
62724;SDS011;49026;52.600;4.694;2023-04-24T01:07:36;15.07;;;4.30;;
62724;SDS011;49026;52.600;4.694;2023-04-24T01:10:03;16.10;;;5.47;;
62724;SDS011;49026;52.600;4.694;2023-04-24T01:12:28;19.70;;;6.20;;
62724;SDS011;49026;52.600;4.694;2023-04-24T01:14:54;26.02;;;6.75;;
62724;SDS011;49026;52.600;4.694;2023-04-24T01:17:20;29.10;;;7.20;;
62724;SDS011;49026;52.600;4.694;2023-04-24T01:19:47;16.63;;;5.68;;
62724;SDS011;49026;52.600;4.694;2023-04-24T01:22:13;15.85;;;5.45;;
62724;SDS011;49026;52.600;4.694;2023-04-24T01:24:39;16.83;;;5.28;;
62724;SDS011;49026;52.600;4.694;2023-04-24T01:27:05;14.75;;;5.18;;
62724;SDS011;49026;52.600;4.694;2023-04-24T01:29:31;12.85;;;3.97;;
62724;SDS011;49026;52.600;4.694;2023-04-24T01:31:57;13.55;;;4.20;;
62724;SDS011;49026;52.600;4.694;2023-04-24T01:34:25;13.27;;;4.05;;
62724;SDS011;49026;52.600;4.694;2023-04-24T01:36:50;18.08;;;3.95;;
62724;SDS011;49026;52.600;4.694;2023-04-24T01:39:16;9.85;;;3.20;;
62724;SDS011;49026;52.600;4.694;2023-04-24T01:41:45;14.93;;;3.77;;
62724;SDS011;49026;52.600;4.694;2023-04-24T01:44:11;10.38;;;3.15;;
62724;SDS011;49026;52.600;4.694;2023-04-24T01:46:36;13.30;;;4.30;;
62724;SDS011;49026;52.600;4.694;2023-04-24T01:49:05;17.75;;;3.92;;
62724;SDS011;49026;52.600;4.694;2023-04-24T01:51:30;16.35;;;3.08;;
62724;SDS011;49026;52.600;4.694;2023-04-24T01:53:58;21.70;;;3.97;;
62724;SDS011;49026;52.600;4.694;2023-04-24T01:56:23;14.50;;;3.60;;
62724;SDS011;49026;52.600;4.694;2023-04-24T02:01:19;16.10;;;3.80;;
62724;SDS011;49026;52.600;4.694;2023-04-24T02:03:48;14.70;;;3.70;;
62724;SDS011;49026;52.600;4.694;2023-04-24T02:06:13;13.65;;;3.42;;
62724;SDS011;49026;52.600;4.694;2023-04-24T02:08:38;14.40;;;3.05;;
62724;SDS011;49026;52.600;4.694;2023-04-24T02:11:04;10.32;;;2.95;;
62724;SDS011;49026;52.600;4.694;2023-04-24T02:13:30;13.73;;;3.42;;
62724;SDS011;49026;52.600;4.694;2023-04-24T02:15:56;17.92;;;3.28;;
62724;SDS011;49026;52.600;4.694;2023-04-24T02:18:23;16.33;;;3.70;;
62724;SDS011;49026;52.600;4.694;2023-04-24T02:20:48;18.38;;;4.18;;
62724;SDS011;49026;52.600;4.694;2023-04-24T02:23:14;23.05;;;3.58;;
62724;SDS011;49026;52.600;4.694;2023-04-24T02:25:41;14.48;;;2.58;;
62724;SDS011;49026;52.600;4.694;2023-04-24T02:28:09;16.35;;;3.88;;
62724;SDS011;49026;52.600;4.694;2023-04-24T02:30:34;20.30;;;4.03;;
62724;SDS011;49026;52.600;4.694;2023-04-24T02:32:59;20.60;;;4.07;;
62724;SDS011;49026;52.600;4.694;2023-04-24T02:35:28;15.10;;;3.83;;
62724;SDS011;49026;52.600;4.694;2023-04-24T02:37:55;20.42;;;3.88;;
62724;SDS011;49026;52.600;4.694;2023-04-24T02:40:21;18.38;;;3.90;;
62724;SDS011;49026;52.600;4.694;2023-04-24T02:42:46;18.08;;;3.83;;
62724;SDS011;49026;52.600;4.694;2023-04-24T02:45:11;13.15;;;3.70;;
62724;SDS011;49026;52.600;4.694;2023-04-24T02:47:37;20.10;;;4.00;;
62724;SDS011;49026;52.600;4.694;2023-04-24T02:50:03;23.77;;;3.88;;
62724;SDS011;49026;52.600;4.694;2023-04-24T02:52:29;16.40;;;3.65;;
62724;SDS011;49026;52.600;4.694;2023-04-24T02:54:54;21.73;;;3.35;;
62724;SDS011;49026;52.600;4.694;2023-04-24T02:57:22;25.85;;;4.05;;
62724;SDS011;49026;52.600;4.694;2023-04-24T02:59:50;25.48;;;4.20;;
62724;SDS011;49026;52.600;4.694;2023-04-24T03:02:18;23.95;;;3.97;;
62724;SDS011;49026;52.600;4.694;2023-04-24T03:04:45;28.70;;;5.55;;
62724;SDS011;49026;52.600;4.694;2023-04-24T03:07:12;16.25;;;4.10;;
62724;SDS011;49026;52.600;4.694;2023-04-24T03:09:40;16.98;;;4.43;;
62724;SDS011;49026;52.600;4.694;2023-04-24T03:12:05;18.83;;;4.10;;
62724;SDS011;49026;52.600;4.694;2023-04-24T03:14:33;17.17;;;4.93;;
62724;SDS011;49026;52.600;4.694;2023-04-24T03:17:01;11.35;;;4.72;;
62724;SDS011;49026;52.600;4.694;2023-04-24T03:19:26;11.80;;;4.05;;
62724;SDS011;49026;52.600;4.694;2023-04-24T03:21:51;16.40;;;3.80;;
62724;SDS011;49026;52.600;4.694;2023-04-24T03:24:17;13.30;;;4.45;;
62724;SDS011;49026;52.600;4.694;2023-04-24T03:26:45;21.30;;;4.68;;
62724;SDS011;49026;52.600;4.694;2023-04-24T03:29:10;24.02;;;5.82;;
62724;SDS011;49026;52.600;4.694;2023-04-24T03:31:40;20.95;;;5.45;;
62724;SDS011;49026;52.600;4.694;2023-04-24T03:34:05;22.45;;;6.38;;
62724;SDS011;49026;52.600;4.694;2023-04-24T03:36:34;20.95;;;5.32;;
62724;SDS011;49026;52.600;4.694;2023-04-24T03:38:59;16.60;;;5.70;;
62724;SDS011;49026;52.600;4.694;2023-04-24T03:41:24;20.50;;;6.43;;
62724;SDS011;49026;52.600;4.694;2023-04-24T03:43:50;25.05;;;7.07;;
62724;SDS011;49026;52.600;4.694;2023-04-24T03:46:15;22.50;;;6.85;;
62724;SDS011;49026;52.600;4.694;2023-04-24T03:48:41;28.13;;;7.70;;
62724;SDS011;49026;52.600;4.694;2023-04-24T03:51:09;22.00;;;7.53;;
62724;SDS011;49026;52.600;4.694;2023-04-24T03:53:34;26.42;;;7.53;;
62724;SDS011;49026;52.600;4.694;2023-04-24T03:55:59;21.52;;;7.18;;
62724;SDS011;49026;52.600;4.694;2023-04-24T03:58:27;15.98;;;6.35;;
62724;SDS011;49026;52.600;4.694;2023-04-24T04:00:52;23.85;;;6.95;;
62724;SDS011;49026;52.600;4.694;2023-04-24T04:03:17;19.90;;;6.20;;
62724;SDS011;49026;52.600;4.694;2023-04-24T04:05:43;25.75;;;6.68;;
62724;SDS011;49026;52.600;4.694;2023-04-24T04:08:10;34.05;;;9.18;;
62724;SDS011;49026;52.600;4.694;2023-04-24T04:10:39;22.15;;;7.55;;
62724;SDS011;49026;52.600;4.694;2023-04-24T04:13:04;25.55;;;8.10;;
62724;SDS011;49026;52.600;4.694;2023-04-24T04:15:32;18.95;;;6.35;;
62724;SDS011;49026;52.600;4.694;2023-04-24T04:17:57;15.73;;;4.80;;
62724;SDS011;49026;52.600;4.694;2023-04-24T04:20:27;13.18;;;4.07;;
62724;SDS011;49026;52.600;4.694;2023-04-24T04:22:53;8.07;;;3.00;;
62724;SDS011;49026;52.600;4.694;2023-04-24T04:25:18;13.60;;;3.45;;
62724;SDS011;49026;52.600;4.694;2023-04-24T04:27:46;11.50;;;2.70;;
62724;SDS011;49026;52.600;4.694;2023-04-24T04:30:13;10.40;;;3.55;;
62724;SDS011;49026;52.600;4.694;2023-04-24T04:32:39;12.70;;;4.22;;
62724;SDS011;49026;52.600;4.694;2023-04-24T04:35:04;13.00;;;5.85;;
62724;SDS011;49026;52.600;4.694;2023-04-24T04:37:30;13.43;;;4.75;;
62724;SDS011;49026;52.600;4.694;2023-04-24T04:39:56;24.48;;;5.32;;
62724;SDS011;49026;52.600;4.694;2023-04-24T04:42:23;24.83;;;7.00;;
62724;SDS011;49026;52.600;4.694;2023-04-24T04:44:51;28.58;;;10.27;;
62724;SDS011;49026;52.600;4.694;2023-04-24T04:47:17;43.40;;;15.38;;
62724;SDS011;49026;52.600;4.694;2023-04-24T04:49:43;38.10;;;12.43;;
62724;SDS011;49026;52.600;4.694;2023-04-24T04:52:09;60.17;;;19.05;;
62724;SDS011;49026;52.600;4.694;2023-04-24T04:54:34;42.97;;;15.15;;
62724;SDS011;49026;52.600;4.694;2023-04-24T04:57:00;69.20;;;21.35;;
62724;SDS011;49026;52.600;4.694;2023-04-24T04:59:26;39.80;;;15.75;;
62724;SDS011;49026;52.600;4.694;2023-04-24T05:01:51;58.40;;;19.52;;
62724;SDS011;49026;52.600;4.694;2023-04-24T05:04:17;42.75;;;15.85;;
62724;SDS011;49026;52.600;4.694;2023-04-24T05:06:44;45.22;;;16.27;;
62724;SDS011;49026;52.600;4.694;2023-04-24T05:09:12;60.33;;;23.30;;
62724;SDS011;49026;52.600;4.694;2023-04-24T05:11:37;45.20;;;15.95;;
62724;SDS011;49026;52.600;4.694;2023-04-24T05:14:05;34.35;;;13.77;;
62724;SDS011;49026;52.600;4.694;2023-04-24T05:16:30;35.85;;;14.77;;
62724;SDS011;49026;52.600;4.694;2023-04-24T05:18:56;55.25;;;20.67;;
62724;SDS011;49026;52.600;4.694;2023-04-24T05:21:21;46.10;;;17.63;;
62724;SDS011;49026;52.600;4.694;2023-04-24T05:23:47;45.85;;;17.05;;
62724;SDS011;49026;52.600;4.694;2023-04-24T05:26:13;30.02;;;13.10;;
62724;SDS011;49026;52.600;4.694;2023-04-24T05:28:41;39.72;;;14.70;;
62724;SDS011;49026;52.600;4.694;2023-04-24T05:31:06;37.28;;;15.65;;
62724;SDS011;49026;52.600;4.694;2023-04-24T05:33:36;34.55;;;15.45;;
62724;SDS011;49026;52.600;4.694;2023-04-24T05:36:02;36.67;;;15.32;;
62724;SDS011;49026;52.600;4.694;2023-04-24T05:38:30;27.33;;;11.80;;
62724;SDS011;49026;52.600;4.694;2023-04-24T05:40:55;37.13;;;16.98;;
62724;SDS011;49026;52.600;4.694;2023-04-24T05:43:21;22.67;;;10.50;;
62724;SDS011;49026;52.600;4.694;2023-04-24T05:45:46;23.73;;;11.00;;
62724;SDS011;49026;52.600;4.694;2023-04-24T05:48:11;19.00;;;8.73;;
62724;SDS011;49026;52.600;4.694;2023-04-24T05:50:37;29.25;;;11.40;;
62724;SDS011;49026;52.600;4.694;2023-04-24T05:53:05;27.13;;;10.90;;
62724;SDS011;49026;52.600;4.694;2023-04-24T05:55:34;33.30;;;11.43;;
62724;SDS011;49026;52.600;4.694;2023-04-24T05:57:59;21.58;;;10.18;;
62724;SDS011;49026;52.600;4.694;2023-04-24T06:00:27;22.35;;;9.25;;
62724;SDS011;49026;52.600;4.694;2023-04-24T06:02:53;23.23;;;10.80;;
62724;SDS011;49026;52.600;4.694;2023-04-24T06:05:21;24.95;;;9.80;;
62724;SDS011;49026;52.600;4.694;2023-04-24T06:07:47;23.92;;;9.13;;
62724;SDS011;49026;52.600;4.694;2023-04-24T06:10:13;26.27;;;10.38;;
62724;SDS011;49026;52.600;4.694;2023-04-24T06:12:40;28.00;;;10.00;;
62724;SDS011;49026;52.600;4.694;2023-04-24T06:15:09;16.58;;;8.10;;
62724;SDS011;49026;52.600;4.694;2023-04-24T06:17:35;26.80;;;8.35;;
62724;SDS011;49026;52.600;4.694;2023-04-24T06:20:00;32.80;;;9.23;;
62724;SDS011;49026;52.600;4.694;2023-04-24T06:22:28;23.17;;;8.50;;
62724;SDS011;49026;52.600;4.694;2023-04-24T06:24:53;26.33;;;8.43;;
62724;SDS011;49026;52.600;4.694;2023-04-24T06:27:19;15.27;;;7.72;;
62724;SDS011;49026;52.600;4.694;2023-04-24T06:29:44;22.15;;;8.27;;
62724;SDS011;49026;52.600;4.694;2023-04-24T06:32:10;21.27;;;6.97;;
62724;SDS011;49026;52.600;4.694;2023-04-24T06:34:35;22.75;;;6.85;;
62724;SDS011;49026;52.600;4.694;2023-04-24T06:37:01;23.02;;;8.20;;
62724;SDS011;49026;52.600;4.694;2023-04-24T06:39:27;14.75;;;6.60;;
62724;SDS011;49026;52.600;4.694;2023-04-24T06:41:52;15.75;;;5.20;;
62724;SDS011;49026;52.600;4.694;2023-04-24T06:44:17;18.52;;;6.00;;
62724;SDS011;49026;52.600;4.694;2023-04-24T06:46:42;17.42;;;6.47;;
62724;SDS011;49026;52.600;4.694;2023-04-24T06:49:12;22.30;;;5.53;;
62724;SDS011;49026;52.600;4.694;2023-04-24T06:51:40;18.63;;;6.35;;
62724;SDS011;49026;52.600;4.694;2023-04-24T06:54:06;23.75;;;7.38;;
62724;SDS011;49026;52.600;4.694;2023-04-24T06:56:33;26.45;;;6.50;;
62724;SDS011;49026;52.600;4.694;2023-04-24T06:59:01;34.85;;;8.10;;
62724;SDS011;49026;52.600;4.694;2023-04-24T07:01:26;33.30;;;6.35;;
62724;SDS011;49026;52.600;4.694;2023-04-24T07:03:54;28.92;;;6.72;;
62724;SDS011;49026;52.600;4.694;2023-04-24T07:06:20;22.73;;;5.07;;
62724;SDS011;49026;52.600;4.694;2023-04-24T07:08:47;31.98;;;5.85;;
62724;SDS011;49026;52.600;4.694;2023-04-24T07:11:15;30.75;;;7.07;;
62724;SDS011;49026;52.600;4.694;2023-04-24T07:13:42;27.30;;;5.55;;
62724;SDS011;49026;52.600;4.694;2023-04-24T07:16:09;18.27;;;3.75;;
62724;SDS011;49026;52.600;4.694;2023-04-24T07:18:34;32.28;;;4.38;;
62724;SDS011;49026;52.600;4.694;2023-04-24T07:21:02;22.85;;;5.60;;
62724;SDS011;49026;52.600;4.694;2023-04-24T07:23:27;33.25;;;5.35;;
62724;SDS011;49026;52.600;4.694;2023-04-24T07:25:55;24.33;;;5.30;;
62724;SDS011;49026;52.600;4.694;2023-04-24T07:28:26;22.65;;;3.88;;
62724;SDS011;49026;52.600;4.694;2023-04-24T07:30:51;19.45;;;3.42;;
62724;SDS011;49026;52.600;4.694;2023-04-24T07:33:18;26.75;;;5.63;;
62724;SDS011;49026;52.600;4.694;2023-04-24T07:35:44;18.23;;;3.40;;
62724;SDS011;49026;52.600;4.694;2023-04-24T07:38:09;21.05;;;4.07;;
62724;SDS011;49026;52.600;4.694;2023-04-24T07:40:35;13.35;;;2.60;;
62724;SDS011;49026;52.600;4.694;2023-04-24T07:43:03;18.13;;;3.28;;
62724;SDS011;49026;52.600;4.694;2023-04-24T07:45:28;21.92;;;3.88;;
62724;SDS011;49026;52.600;4.694;2023-04-24T07:47:54;23.60;;;4.40;;
62724;SDS011;49026;52.600;4.694;2023-04-24T07:50:21;25.88;;;3.80;;
62724;SDS011;49026;52.600;4.694;2023-04-24T07:52:47;15.77;;;2.33;;
62724;SDS011;49026;52.600;4.694;2023-04-24T07:55:12;15.40;;;3.38;;
62724;SDS011;49026;52.600;4.694;2023-04-24T07:57:38;22.13;;;3.13;;
62724;SDS011;49026;52.600;4.694;2023-04-24T08:00:06;21.90;;;4.32;;
62724;SDS011;49026;52.600;4.694;2023-04-24T08:02:35;18.42;;;2.90;;
62724;SDS011;49026;52.600;4.694;2023-04-24T08:05:00;18.30;;;2.90;;
62724;SDS011;49026;52.600;4.694;2023-04-24T08:07:28;16.52;;;2.63;;
62724;SDS011;49026;52.600;4.694;2023-04-24T08:09:56;15.32;;;3.05;;
62724;SDS011;49026;52.600;4.694;2023-04-24T08:12:21;12.13;;;2.67;;
62724;SDS011;49026;52.600;4.694;2023-04-24T08:14:47;11.15;;;2.30;;
62724;SDS011;49026;52.600;4.694;2023-04-24T08:17:12;19.55;;;3.63;;
62724;SDS011;49026;52.600;4.694;2023-04-24T08:19:40;20.48;;;2.88;;
62724;SDS011;49026;52.600;4.694;2023-04-24T08:22:12;17.58;;;2.85;;
62724;SDS011;49026;52.600;4.694;2023-04-24T08:24:37;13.73;;;2.22;;
62724;SDS011;49026;52.600;4.694;2023-04-24T08:27:03;14.93;;;2.20;;
62724;SDS011;49026;52.600;4.694;2023-04-24T08:29:28;15.85;;;2.60;;
62724;SDS011;49026;52.600;4.694;2023-04-24T08:31:54;16.15;;;2.70;;
62724;SDS011;49026;52.600;4.694;2023-04-24T08:34:19;7.63;;;2.45;;
62724;SDS011;49026;52.600;4.694;2023-04-24T08:36:47;16.90;;;2.75;;
62724;SDS011;49026;52.600;4.694;2023-04-24T08:39:13;10.98;;;2.33;;
62724;SDS011;49026;52.600;4.694;2023-04-24T08:41:42;12.18;;;2.28;;
62724;SDS011;49026;52.600;4.694;2023-04-24T08:44:10;10.68;;;2.55;;
62724;SDS011;49026;52.600;4.694;2023-04-24T08:46:39;16.75;;;2.20;;
62724;SDS011;49026;52.600;4.694;2023-04-24T08:49:09;20.52;;;3.25;;
62724;SDS011;49026;52.600;4.694;2023-04-24T08:51:37;17.27;;;2.22;;
62724;SDS011;49026;52.600;4.694;2023-04-24T08:54:04;18.27;;;3.05;;
62724;SDS011;49026;52.600;4.694;2023-04-24T08:56:30;10.07;;;1.88;;
62724;SDS011;49026;52.600;4.694;2023-04-24T08:59:02;11.02;;;2.28;;
62724;SDS011;49026;52.600;4.694;2023-04-24T09:01:29;11.75;;;1.90;;
62724;SDS011;49026;52.600;4.694;2023-04-24T09:03:57;14.13;;;2.08;;
62724;SDS011;49026;52.600;4.694;2023-04-24T09:06:30;11.17;;;2.67;;
62724;SDS011;49026;52.600;4.694;2023-04-24T09:08:57;8.13;;;1.90;;
62724;SDS011;49026;52.600;4.694;2023-04-24T09:11:26;18.77;;;2.60;;
62724;SDS011;49026;52.600;4.694;2023-04-24T09:13:52;21.40;;;2.97;;
62724;SDS011;49026;52.600;4.694;2023-04-24T09:16:19;9.35;;;2.17;;
62724;SDS011;49026;52.600;4.694;2023-04-24T09:18:49;7.65;;;1.58;;
62724;SDS011;49026;52.600;4.694;2023-04-24T09:21:14;13.15;;;2.47;;
62724;SDS011;49026;52.600;4.694;2023-04-24T09:23:42;6.45;;;1.50;;
62724;SDS011;49026;52.600;4.694;2023-04-24T09:26:08;13.27;;;2.00;;
62724;SDS011;49026;52.600;4.694;2023-04-24T09:28:40;7.38;;;1.73;;
62724;SDS011;49026;52.600;4.694;2023-04-24T09:33:38;8.32;;;1.83;;
62724;SDS011;49026;52.600;4.694;2023-04-24T09:36:04;6.50;;;1.55;;
62724;SDS011;49026;52.600;4.694;2023-04-24T09:38:31;7.57;;;1.83;;
62724;SDS011;49026;52.600;4.694;2023-04-24T09:41:07;3.97;;;1.08;;
62724;SDS011;49026;52.600;4.694;2023-04-24T09:43:33;7.32;;;1.17;;
62724;SDS011;49026;52.600;4.694;2023-04-24T09:46:04;10.13;;;1.65;;
62724;SDS011;49026;52.600;4.694;2023-04-24T09:48:32;10.30;;;1.23;;
62724;SDS011;49026;52.600;4.694;2023-04-24T09:50:59;11.88;;;1.48;;
62724;SDS011;49026;52.600;4.694;2023-04-24T09:53:31;8.10;;;1.45;;
62724;SDS011;49026;52.600;4.694;2023-04-24T09:56:06;12.50;;;2.00;;
62724;SDS011;49026;52.600;4.694;2023-04-24T09:58:36;12.88;;;2.33;;
62724;SDS011;49026;52.600;4.694;2023-04-24T10:01:10;9.77;;;1.83;;
62724;SDS011;49026;52.600;4.694;2023-04-24T10:03:38;17.05;;;2.42;;
62724;SDS011;49026;52.600;4.694;2023-04-24T10:06:07;6.22;;;1.73;;
62724;SDS011;49026;52.600;4.694;2023-04-24T10:08:36;8.53;;;1.60;;
62724;SDS011;49026;52.600;4.694;2023-04-24T10:11:02;8.98;;;1.85;;
62724;SDS011;49026;52.600;4.694;2023-04-24T10:13:28;11.35;;;1.90;;
62724;SDS011;49026;52.600;4.694;2023-04-24T10:15:56;7.15;;;1.35;;
62724;SDS011;49026;52.600;4.694;2023-04-24T10:18:23;12.77;;;1.70;;
62724;SDS011;49026;52.600;4.694;2023-04-24T10:20:50;7.50;;;1.30;;
62724;SDS011;49026;52.600;4.694;2023-04-24T10:23:15;4.50;;;0.95;;
62724;SDS011;49026;52.600;4.694;2023-04-24T10:25:44;6.53;;;1.30;;
62724;SDS011;49026;52.600;4.694;2023-04-24T10:28:09;8.95;;;1.15;;
62724;SDS011;49026;52.600;4.694;2023-04-24T10:30:38;9.38;;;1.25;;
62724;SDS011;49026;52.600;4.694;2023-04-24T10:33:07;7.57;;;1.20;;
62724;SDS011;49026;52.600;4.694;2023-04-24T10:35:38;4.65;;;1.05;;
62724;SDS011;49026;52.600;4.694;2023-04-24T10:38:07;10.13;;;1.02;;
62724;SDS011;49026;52.600;4.694;2023-04-24T10:40:35;6.00;;;1.27;;
62724;SDS011;49026;52.600;4.694;2023-04-24T10:43:04;9.30;;;1.80;;
62724;SDS011;49026;52.600;4.694;2023-04-24T10:45:32;9.40;;;1.52;;
62724;SDS011;49026;52.600;4.694;2023-04-24T10:48:02;6.75;;;1.30;;
62724;SDS011;49026;52.600;4.694;2023-04-24T10:53:12;4.97;;;1.30;;
62724;SDS011;49026;52.600;4.694;2023-04-24T10:55:40;8.48;;;1.20;;
62724;SDS011;49026;52.600;4.694;2023-04-24T10:58:13;6.75;;;1.67;;
62724;SDS011;49026;52.600;4.694;2023-04-24T11:00:42;3.60;;;1.10;;
62724;SDS011;49026;52.600;4.694;2023-04-24T11:03:32;3.92;;;0.80;;
62724;SDS011;49026;52.600;4.694;2023-04-24T11:08:41;10.10;;;1.48;;
62724;SDS011;49026;52.600;4.694;2023-04-24T11:11:14;5.53;;;1.50;;
62724;SDS011;49026;52.600;4.694;2023-04-24T11:16:29;8.73;;;1.45;;
62724;SDS011;49026;52.600;4.694;2023-04-24T11:35:13;9.13;;;1.50;;
62724;SDS011;49026;52.600;4.694;2023-04-24T11:37:48;6.13;;;1.73;;
62724;SDS011;49026;52.600;4.694;2023-04-24T11:40:15;6.05;;;1.00;;
62724;SDS011;49026;52.600;4.694;2023-04-24T11:42:47;5.63;;;1.30;;
62724;SDS011;49026;52.600;4.694;2023-04-24T11:45:14;8.18;;;1.35;;
62724;SDS011;49026;52.600;4.694;2023-04-24T11:47:41;8.32;;;2.15;;
62724;SDS011;49026;52.600;4.694;2023-04-24T11:50:08;9.73;;;2.25;;
62724;SDS011;49026;52.600;4.694;2023-04-24T11:52:37;22.02;;;3.80;;
62724;SDS011;49026;52.600;4.694;2023-04-24T11:55:06;13.00;;;2.90;;
62724;SDS011;49026;52.600;4.694;2023-04-24T11:57:35;15.95;;;2.53;;
62724;SDS011;49026;52.600;4.694;2023-04-24T12:00:02;20.55;;;4.00;;
62724;SDS011;49026;52.600;4.694;2023-04-24T12:02:30;15.23;;;2.83;;
62724;SDS011;49026;52.600;4.694;2023-04-24T12:04:56;15.25;;;2.55;;
62724;SDS011;49026;52.600;4.694;2023-04-24T12:07:21;9.20;;;1.80;;
62724;SDS011;49026;52.600;4.694;2023-04-24T12:09:59;9.50;;;1.98;;
62724;SDS011;49026;52.600;4.694;2023-04-24T12:12:28;14.60;;;2.60;;
62724;SDS011;49026;52.600;4.694;2023-04-24T12:14:57;9.07;;;1.73;;
62724;SDS011;49026;52.600;4.694;2023-04-24T12:20:03;14.15;;;2.22;;
62724;SDS011;49026;52.600;4.694;2023-04-24T12:25:16;15.35;;;3.65;;
62724;SDS011;49026;52.600;4.694;2023-04-24T12:27:45;15.60;;;2.38;;
62724;SDS011;49026;52.600;4.694;2023-04-24T12:30:12;16.45;;;2.97;;
62724;SDS011;49026;52.600;4.694;2023-04-24T12:32:46;10.07;;;2.45;;
62724;SDS011;49026;52.600;4.694;2023-04-24T12:35:13;17.80;;;2.67;;
62724;SDS011;49026;52.600;4.694;2023-04-24T12:37:41;15.85;;;2.53;;
62724;SDS011;49026;52.600;4.694;2023-04-24T12:40:09;16.02;;;2.75;;
62724;SDS011;49026;52.600;4.694;2023-04-24T12:42:35;15.70;;;2.72;;
62724;SDS011;49026;52.600;4.694;2023-04-24T12:45:07;14.52;;;2.75;;
62724;SDS011;49026;52.600;4.694;2023-04-24T12:47:33;22.08;;;2.55;;
62724;SDS011;49026;52.600;4.694;2023-04-24T12:50:03;13.65;;;2.60;;
62724;SDS011;49026;52.600;4.694;2023-04-24T12:52:31;20.15;;;3.05;;
62724;SDS011;49026;52.600;4.694;2023-04-24T12:54:59;22.73;;;3.75;;
62724;SDS011;49026;52.600;4.694;2023-04-24T12:57:26;16.88;;;2.30;;
62724;SDS011;49026;52.600;4.694;2023-04-24T12:59:56;12.30;;;2.67;;
62724;SDS011;49026;52.600;4.694;2023-04-24T13:02:23;14.50;;;3.33;;
62724;SDS011;49026;52.600;4.694;2023-04-24T13:04:49;20.70;;;4.10;;
62724;SDS011;49026;52.600;4.694;2023-04-24T13:07:15;17.75;;;2.67;;
62724;SDS011;49026;52.600;4.694;2023-04-24T13:09:41;18.92;;;2.92;;
62724;SDS011;49026;52.600;4.694;2023-04-24T13:12:08;20.27;;;4.13;;
62724;SDS011;49026;52.600;4.694;2023-04-24T13:14:34;15.80;;;3.25;;
62724;SDS011;49026;52.600;4.694;2023-04-24T13:17:03;18.67;;;3.08;;
62724;SDS011;49026;52.600;4.694;2023-04-24T13:19:29;18.48;;;2.60;;
62724;SDS011;49026;52.600;4.694;2023-04-24T13:21:55;14.25;;;3.17;;
62724;SDS011;49026;52.600;4.694;2023-04-24T13:24:22;10.93;;;2.65;;
62724;SDS011;49026;52.600;4.694;2023-04-24T13:26:51;15.30;;;2.80;;
62724;SDS011;49026;52.600;4.694;2023-04-24T13:29:17;16.33;;;3.33;;
62724;SDS011;49026;52.600;4.694;2023-04-24T13:31:42;20.27;;;3.33;;
62724;SDS011;49026;52.600;4.694;2023-04-24T13:34:07;15.85;;;3.22;;
62724;SDS011;49026;52.600;4.694;2023-04-24T13:36:35;11.80;;;3.03;;
62724;SDS011;49026;52.600;4.694;2023-04-24T13:39:01;11.65;;;2.05;;
62724;SDS011;49026;52.600;4.694;2023-04-24T13:41:30;20.33;;;4.22;;
62724;SDS011;49026;52.600;4.694;2023-04-24T13:43:56;20.98;;;3.83;;
62724;SDS011;49026;52.600;4.694;2023-04-24T13:46:21;18.38;;;3.20;;
62724;SDS011;49026;52.600;4.694;2023-04-24T13:48:49;22.48;;;4.35;;
62724;SDS011;49026;52.600;4.694;2023-04-24T13:51:17;14.32;;;2.90;;
62724;SDS011;49026;52.600;4.694;2023-04-24T13:53:42;20.38;;;3.80;;
62724;SDS011;49026;52.600;4.694;2023-04-24T13:56:08;23.65;;;3.92;;
62724;SDS011;49026;52.600;4.694;2023-04-24T13:58:33;14.13;;;3.20;;
62724;SDS011;49026;52.600;4.694;2023-04-24T14:01:00;12.85;;;2.67;;
62724;SDS011;49026;52.600;4.694;2023-04-24T14:03:26;16.58;;;3.28;;
62724;SDS011;49026;52.600;4.694;2023-04-24T14:05:51;14.43;;;3.78;;
62724;SDS011;49026;52.600;4.694;2023-04-24T14:08:16;14.15;;;2.60;;
62724;SDS011;49026;52.600;4.694;2023-04-24T14:10:42;16.58;;;3.00;;
62724;SDS011;49026;52.600;4.694;2023-04-24T14:13:10;12.93;;;2.92;;
62724;SDS011;49026;52.600;4.694;2023-04-24T14:15:35;14.88;;;3.05;;
62724;SDS011;49026;52.600;4.694;2023-04-24T14:18:01;15.57;;;3.13;;
62724;SDS011;49026;52.600;4.694;2023-04-24T14:20:26;11.25;;;2.80;;
62724;SDS011;49026;52.600;4.694;2023-04-24T14:22:54;19.30;;;3.03;;
62724;SDS011;49026;52.600;4.694;2023-04-24T14:25:19;18.95;;;4.05;;
62724;SDS011;49026;52.600;4.694;2023-04-24T14:27:45;17.33;;;3.42;;
62724;SDS011;49026;52.600;4.694;2023-04-24T14:30:11;14.75;;;3.13;;
62724;SDS011;49026;52.600;4.694;2023-04-24T14:32:38;14.50;;;2.85;;
62724;SDS011;49026;52.600;4.694;2023-04-24T14:35:08;12.63;;;3.33;;
62724;SDS011;49026;52.600;4.694;2023-04-24T14:37:33;15.20;;;2.65;;
62724;SDS011;49026;52.600;4.694;2023-04-24T14:39:59;12.25;;;2.63;;
62724;SDS011;49026;52.600;4.694;2023-04-24T14:42:24;5.88;;;2.10;;
62724;SDS011;49026;52.600;4.694;2023-04-24T14:44:50;11.35;;;2.28;;
62724;SDS011;49026;52.600;4.694;2023-04-24T14:47:16;16.02;;;2.45;;
62724;SDS011;49026;52.600;4.694;2023-04-24T14:49:46;14.32;;;2.92;;
62724;SDS011;49026;52.600;4.694;2023-04-24T14:52:14;15.52;;;3.42;;
62724;SDS011;49026;52.600;4.694;2023-04-24T14:54:40;14.18;;;3.28;;
62724;SDS011;49026;52.600;4.694;2023-04-24T14:57:06;17.10;;;2.95;;
62724;SDS011;49026;52.600;4.694;2023-04-24T14:59:32;10.90;;;2.35;;
62724;SDS011;49026;52.600;4.694;2023-04-24T15:01:58;11.45;;;2.90;;
62724;SDS011;49026;52.600;4.694;2023-04-24T15:04:23;14.48;;;2.95;;
62724;SDS011;49026;52.600;4.694;2023-04-24T15:06:50;17.55;;;3.95;;
62724;SDS011;49026;52.600;4.694;2023-04-24T15:09:20;12.57;;;3.00;;
62724;SDS011;49026;52.600;4.694;2023-04-24T15:11:46;15.20;;;2.92;;